createdAt,value
2016-07-09T00:00:23.745Z,19.41
2016-07-09T00:01:23.724Z,19.27
2016-07-09T00:02:23.715Z,19.29
2016-07-09T00:03:23.684Z,19.27
2016-07-09T00:04:23.674Z,19.24
2016-07-09T00:05:23.654Z,19.22
2016-07-09T00:06:23.631Z,19.21
2016-07-09T00:07:23.613Z,19.19
2016-07-09T00:08:23.598Z,19.24
2016-07-09T00:09:23.580Z,19.19
2016-07-09T00:10:23.556Z,19.12
2016-07-09T00:11:23.541Z,19.16
2016-07-09T00:12:23.523Z,19.11
2016-07-09T00:13:23.501Z,19.09
2016-07-09T00:14:23.485Z,19.15
2016-07-09T00:15:23.472Z,19.12
2016-07-09T00:16:23.447Z,19.07
2016-07-09T00:17:23.430Z,19.15
2016-07-09T00:18:23.410Z,19.15
2016-07-09T00:19:23.394Z,19.07
2016-07-09T00:20:23.373Z,19.15
2016-07-09T00:21:23.353Z,19.14
2016-07-09T00:22:23.335Z,19.12
2016-07-09T00:23:23.331Z,19.09
2016-07-09T00:24:23.298Z,19.09
2016-07-09T00:25:23.282Z,19.08
2016-07-09T00:26:23.265Z,19.14
2016-07-09T00:27:23.248Z,19.18
2016-07-09T00:28:23.229Z,19.08
2016-07-09T00:29:23.208Z,19.14
2016-07-09T00:30:23.188Z,19.11
2016-07-09T00:31:23.169Z,19.12
2016-07-09T00:32:23.150Z,19.11
2016-07-09T00:33:23.128Z,19.11
2016-07-09T00:34:23.114Z,18.98
2016-07-09T00:35:23.093Z,18.98
2016-07-09T00:36:23.073Z,18.89
2016-07-09T00:37:23.073Z,18.86
2016-07-09T00:38:23.039Z,18.74
2016-07-09T00:39:23.019Z,18.8
2016-07-09T00:40:23.014Z,18.6
2016-07-09T00:41:22.981Z,18.6
2016-07-09T00:42:22.968Z,18.63
2016-07-09T00:43:22.946Z,18.59
2016-07-09T00:44:22.926Z,18.68
2016-07-09T00:45:22.906Z,18.53
2016-07-09T00:46:22.888Z,18.55
2016-07-09T00:47:22.871Z,18.47
2016-07-09T00:48:22.847Z,18.55
2016-07-09T00:49:22.831Z,18.43
2016-07-09T00:50:22.810Z,18.4
2016-07-09T00:51:22.799Z,18.38
2016-07-09T00:52:22.784Z,18.33
2016-07-09T00:53:22.751Z,18.31
2016-07-09T00:54:22.733Z,18.34
2016-07-09T00:55:22.718Z,18.28
2016-07-09T00:56:22.697Z,18.25
2016-07-09T00:57:22.677Z,18.26
2016-07-09T00:58:22.657Z,18.29
2016-07-09T00:59:22.635Z,18.33
2016-07-09T01:00:22.621Z,18.29
2016-07-09T01:01:22.597Z,18.29
2016-07-09T01:02:22.579Z,18.28
2016-07-09T01:03:22.563Z,18.19
2016-07-09T01:04:22.541Z,18.23
2016-07-09T01:05:22.527Z,18.2
2016-07-09T01:06:22.503Z,18.2
2016-07-09T01:07:22.485Z,18.25
2016-07-09T01:08:22.466Z,18.23
2016-07-09T01:09:22.446Z,18.2
2016-07-09T01:10:22.425Z,18.2
2016-07-09T01:11:22.405Z,18.19
2016-07-09T01:12:22.387Z,18.2
2016-07-09T01:13:22.368Z,18.23
2016-07-09T01:14:22.346Z,18.25
2016-07-09T01:15:22.332Z,18.22
2016-07-09T01:16:22.316Z,18.23
2016-07-09T01:17:22.293Z,18.2
2016-07-09T01:18:22.271Z,18.19
2016-07-09T01:19:22.251Z,18.19
2016-07-09T01:20:22.228Z,18.22
2016-07-09T01:21:22.213Z,18.2
2016-07-09T01:22:22.190Z,18.2
2016-07-09T01:23:22.171Z,18.16
2016-07-09T01:24:22.154Z,18.16
2016-07-09T01:25:22.131Z,18.15
2016-07-09T01:26:22.112Z,18.13
2016-07-09T01:27:22.107Z,18.16
2016-07-09T01:28:22.079Z,18.19
2016-07-09T01:29:22.057Z,18.16
2016-07-09T01:30:22.037Z,18.23
2016-07-09T01:31:22.027Z,18.18
2016-07-09T01:32:21.996Z,18.15
2016-07-09T01:33:21.976Z,18.13
2016-07-09T01:34:21.958Z,18.19
2016-07-09T01:35:21.939Z,18.15
2016-07-09T01:36:21.917Z,18.18
2016-07-09T01:37:21.901Z,18.19
2016-07-09T01:38:21.881Z,18.23
2016-07-09T01:39:21.862Z,18.2
2016-07-09T01:40:21.845Z,18.23
2016-07-09T01:41:21.819Z,18.25
2016-07-09T01:42:21.802Z,18.23
2016-07-09T01:43:21.784Z,18.23
2016-07-09T01:44:21.764Z,18.23
2016-07-09T01:45:21.743Z,18.29
2016-07-09T01:46:21.723Z,18.23
2016-07-09T01:47:21.703Z,18.22
2016-07-09T01:48:21.684Z,18.19
2016-07-09T01:49:21.668Z,18.18
2016-07-09T01:50:21.646Z,18.25
2016-07-09T01:51:21.624Z,18.28
2016-07-09T01:52:21.602Z,18.26
2016-07-09T01:53:21.588Z,18.25
2016-07-09T01:54:21.569Z,18.26
2016-07-09T01:55:21.547Z,18.2
2016-07-09T01:56:21.529Z,18.23
2016-07-09T01:57:21.509Z,18.22
2016-07-09T01:58:21.487Z,18.13
2016-07-09T01:59:21.467Z,18.2
2016-07-09T02:00:21.454Z,18.16
2016-07-09T02:01:21.429Z,18.13
2016-07-09T02:02:21.412Z,18.2
2016-07-09T02:03:21.391Z,18.18
2016-07-09T02:04:21.371Z,18.18
2016-07-09T02:05:21.351Z,18.15
2016-07-09T02:06:21.333Z,18.23
2016-07-09T02:07:21.313Z,18.2
2016-07-09T02:08:21.290Z,18.19
2016-07-09T02:09:21.286Z,18.2
2016-07-09T02:10:21.254Z,18.25
2016-07-09T02:11:21.237Z,18.29
2016-07-09T02:12:21.218Z,18.29
2016-07-09T02:13:21.206Z,18.29
2016-07-09T02:14:21.175Z,18.29
2016-07-09T02:15:21.159Z,18.33
2016-07-09T02:16:21.138Z,18.29
2016-07-09T02:17:21.117Z,18.26
2016-07-09T02:18:21.100Z,18.29
2016-07-09T02:19:21.080Z,18.34
2016-07-09T02:20:21.061Z,18.35
2016-07-09T02:21:21.043Z,18.33
2016-07-09T02:22:21.022Z,18.4
2016-07-09T02:23:21.004Z,18.33
2016-07-09T02:24:20.983Z,18.4
2016-07-09T02:25:20.963Z,18.34
2016-07-09T02:26:20.948Z,18.35
2016-07-09T02:27:20.927Z,18.25
2016-07-09T02:28:20.906Z,18.29
2016-07-09T02:29:20.886Z,18.35
2016-07-09T02:30:20.866Z,18.29
2016-07-09T02:31:20.849Z,18.28
2016-07-09T02:32:20.831Z,18.29
2016-07-09T02:33:20.809Z,18.31
2016-07-09T02:34:20.790Z,18.34
2016-07-09T02:35:21.377Z,18.33
2016-07-09T02:36:20.754Z,18.35
2016-07-09T02:37:20.735Z,18.41
2016-07-09T02:38:20.716Z,18.35
2016-07-09T02:39:20.695Z,18.37
2016-07-09T02:40:20.676Z,18.38
2016-07-09T02:41:20.653Z,18.38
2016-07-09T02:42:20.634Z,18.4
2016-07-09T02:43:20.617Z,18.4
2016-07-09T02:44:20.603Z,18.38
2016-07-09T02:45:20.576Z,18.34
2016-07-09T02:46:20.558Z,18.37
2016-07-09T02:47:20.538Z,18.34
2016-07-09T02:48:20.519Z,18.4
2016-07-09T02:49:20.504Z,18.43
2016-07-09T02:50:20.488Z,18.4
2016-07-09T02:51:20.461Z,18.44
2016-07-09T02:52:20.440Z,18.37
2016-07-09T02:53:20.422Z,18.35
2016-07-09T02:54:20.404Z,18.33
2016-07-09T02:55:20.383Z,18.33
2016-07-09T02:56:20.363Z,18.35
2016-07-09T02:57:20.347Z,18.38
2016-07-09T02:58:20.328Z,18.34
2016-07-09T02:59:20.305Z,18.28
2016-07-09T03:00:20.291Z,18.37
2016-07-09T03:01:20.265Z,18.31
2016-07-09T03:02:20.246Z,18.33
2016-07-09T03:03:20.235Z,18.26
2016-07-09T03:04:20.214Z,18.28
2016-07-09T03:05:20.191Z,18.29
2016-07-09T03:06:20.171Z,18.33
2016-07-09T03:07:20.157Z,18.29
2016-07-09T03:08:20.129Z,18.33
2016-07-09T03:09:20.123Z,18.33
2016-07-09T03:10:20.091Z,18.31
2016-07-09T03:11:20.072Z,18.35
2016-07-09T03:12:20.050Z,18.37
2016-07-09T03:13:20.040Z,18.37
2016-07-09T03:14:20.013Z,18.43
2016-07-09T03:15:19.996Z,18.49
2016-07-09T03:16:19.977Z,18.44
2016-07-09T03:17:19.955Z,18.47
2016-07-09T03:18:19.940Z,18.44
2016-07-09T03:19:19.913Z,18.47
2016-07-09T03:20:19.897Z,18.49
2016-07-09T03:21:19.882Z,18.53
2016-07-09T03:22:19.860Z,18.52
2016-07-09T03:23:19.840Z,18.52
2016-07-09T03:24:19.828Z,18.47
2016-07-09T03:25:19.803Z,18.52
2016-07-09T03:26:19.781Z,18.58
2016-07-09T03:27:19.765Z,18.52
2016-07-09T03:28:19.744Z,18.55
2016-07-09T03:29:19.723Z,18.47
2016-07-09T03:30:19.706Z,18.47
2016-07-09T03:31:19.686Z,18.6
2016-07-09T03:32:19.666Z,18.66
2016-07-09T03:33:19.663Z,18.62
2016-07-09T03:34:19.631Z,18.63
2016-07-09T03:35:19.608Z,18.7
2016-07-09T03:36:19.592Z,18.59
2016-07-09T03:37:19.574Z,18.68
2016-07-09T03:38:19.564Z,18.63
2016-07-09T03:39:19.533Z,18.58
2016-07-09T03:40:19.518Z,18.6
2016-07-09T03:41:19.496Z,18.63
2016-07-09T03:42:20.076Z,18.59
2016-07-09T03:43:19.459Z,18.59
2016-07-09T03:44:19.446Z,18.6
2016-07-09T03:45:19.421Z,18.74
2016-07-09T03:46:19.399Z,18.6
2016-07-09T03:47:19.382Z,18.65
2016-07-09T03:48:19.366Z,18.7
2016-07-09T03:49:19.343Z,18.73
2016-07-09T03:50:19.324Z,18.77
2016-07-09T03:51:19.316Z,18.73
2016-07-09T03:52:19.283Z,18.8
2016-07-09T03:53:19.266Z,18.77
2016-07-09T03:54:19.248Z,18.74
2016-07-09T03:55:19.229Z,18.74
2016-07-09T03:56:19.212Z,18.81
2016-07-09T03:57:19.190Z,18.8
2016-07-09T03:58:19.172Z,18.68
2016-07-09T03:59:19.155Z,18.7
2016-07-09T04:00:19.131Z,18.75
2016-07-09T04:01:19.116Z,18.65
2016-07-09T04:02:19.098Z,18.68
2016-07-09T04:03:19.086Z,18.65
2016-07-09T04:04:19.067Z,18.62
2016-07-09T04:05:19.058Z,18.66
2016-07-09T04:06:19.022Z,18.65
2016-07-09T04:07:19.005Z,18.62
2016-07-09T04:08:18.984Z,18.62
2016-07-09T04:09:18.965Z,18.63
2016-07-09T04:10:18.947Z,18.71
2016-07-09T04:11:18.928Z,18.58
2016-07-09T04:12:18.907Z,18.65
2016-07-09T04:13:18.894Z,18.59
2016-07-09T04:14:18.873Z,18.66
2016-07-09T04:15:18.849Z,18.65
2016-07-09T04:16:18.836Z,18.63
2016-07-09T04:17:18.822Z,18.68
2016-07-09T04:18:18.794Z,18.62
2016-07-09T04:19:18.780Z,18.71
2016-07-09T04:20:18.759Z,18.75
2016-07-09T04:21:18.765Z,18.8
2016-07-09T04:22:18.723Z,18.83
2016-07-09T04:23:18.706Z,18.73
2016-07-09T04:24:18.684Z,18.75
2016-07-09T04:25:18.672Z,18.8
2016-07-09T04:26:18.644Z,18.83
2016-07-09T04:27:18.629Z,18.74
2016-07-09T04:28:18.610Z,18.7
2016-07-09T04:29:18.589Z,18.86
2016-07-09T04:30:18.577Z,18.9
2016-07-09T04:31:18.554Z,18.81
2016-07-09T04:32:18.535Z,18.92
2016-07-09T04:33:18.517Z,18.92
2016-07-09T04:34:18.501Z,18.9
2016-07-09T04:35:18.481Z,18.96
2016-07-09T04:36:18.460Z,18.83
2016-07-09T04:37:18.443Z,18.92
2016-07-09T04:38:18.441Z,18.95
2016-07-09T04:39:18.407Z,18.96
2016-07-09T04:40:18.385Z,18.99
2016-07-09T04:41:18.368Z,19.02
2016-07-09T04:42:18.352Z,18.93
2016-07-09T04:43:18.332Z,19.08
2016-07-09T04:44:18.312Z,18.99
2016-07-09T04:45:18.307Z,19.07
2016-07-09T04:46:18.278Z,19.04
2016-07-09T04:47:18.259Z,19.04
2016-07-09T04:48:18.242Z,19.12
2016-07-09T04:49:18.221Z,19.15
2016-07-09T04:50:18.206Z,19.16
2016-07-09T04:51:18.186Z,19.16
2016-07-09T04:52:18.167Z,19.12
2016-07-09T04:53:18.163Z,19.08
2016-07-09T04:54:18.131Z,19.16
2016-07-09T04:55:18.111Z,19.19
2016-07-09T04:56:18.096Z,19.22
2016-07-09T04:57:18.075Z,19.27
2016-07-09T04:58:18.057Z,19.26
2016-07-09T04:59:18.038Z,19.33
2016-07-09T05:00:18.021Z,19.3
2016-07-09T05:01:18.004Z,19.29
2016-07-09T05:02:17.987Z,19.33
2016-07-09T05:03:17.969Z,19.36
2016-07-09T05:04:17.951Z,19.37
2016-07-09T05:05:17.931Z,19.39
2016-07-09T05:06:17.914Z,19.41
2016-07-09T05:07:17.895Z,19.39
2016-07-09T05:08:17.879Z,19.45
2016-07-09T05:09:17.863Z,19.39
2016-07-09T05:10:17.842Z,19.4
2016-07-09T05:11:17.824Z,19.41
2016-07-09T05:12:17.807Z,19.47
2016-07-09T05:13:17.789Z,19.39
2016-07-09T05:14:17.775Z,19.47
2016-07-09T05:15:17.755Z,19.48
2016-07-09T05:16:18.479Z,19.45
2016-07-09T05:17:17.722Z,19.47
2016-07-09T05:18:17.705Z,19.54
2016-07-09T05:19:17.683Z,19.47
2016-07-09T05:20:17.666Z,19.49
2016-07-09T05:21:17.646Z,19.48
2016-07-09T05:22:17.632Z,19.51
2016-07-09T05:23:17.614Z,19.52
2016-07-09T05:24:17.600Z,19.52
2016-07-09T05:25:17.578Z,19.52
2016-07-09T05:26:17.566Z,19.59
2016-07-09T05:27:17.543Z,19.66
2016-07-09T05:28:17.525Z,19.66
2016-07-09T05:29:17.509Z,19.67
2016-07-09T05:30:17.499Z,19.79
2016-07-09T05:31:17.471Z,19.73
2016-07-09T05:32:17.468Z,19.67
2016-07-09T05:33:17.441Z,19.7
2016-07-09T05:34:17.420Z,19.77
2016-07-09T05:35:17.407Z,19.79
2016-07-09T05:36:17.389Z,19.76
2016-07-09T05:37:17.374Z,19.79
2016-07-09T05:38:17.352Z,19.76
2016-07-09T05:39:17.339Z,19.82
2016-07-09T05:40:17.330Z,19.86
2016-07-09T05:41:17.307Z,19.85
2016-07-09T05:42:17.289Z,19.88
2016-07-09T05:43:17.271Z,19.89
2016-07-09T05:44:17.252Z,19.82
2016-07-09T05:45:17.240Z,19.86
2016-07-09T05:46:17.219Z,19.82
2016-07-09T05:47:17.202Z,19.82
2016-07-09T05:48:17.188Z,19.85
2016-07-09T05:49:17.168Z,19.85
2016-07-09T05:50:17.155Z,19.89
2016-07-09T05:51:17.133Z,19.95
2016-07-09T05:52:17.119Z,19.99
2016-07-09T05:53:17.104Z,19.99
2016-07-09T05:54:17.087Z,20.04
2016-07-09T05:55:17.072Z,20.1
2016-07-09T05:56:17.056Z,20.07
2016-07-09T05:57:17.039Z,20.06
2016-07-09T05:58:17.016Z,20.18
2016-07-09T05:59:17.004Z,20.16
2016-07-09T06:00:16.985Z,20.16
2016-07-09T06:01:16.968Z,20.18
2016-07-09T06:02:16.951Z,20.16
2016-07-09T06:03:16.938Z,20.25
2016-07-09T06:04:16.916Z,20.31
2016-07-09T06:05:16.901Z,20.29
2016-07-09T06:06:16.887Z,20.48
2016-07-09T06:07:16.865Z,20.37
2016-07-09T06:08:16.852Z,20.41
2016-07-09T06:09:16.837Z,20.51
2016-07-09T06:10:16.822Z,20.56
2016-07-09T06:11:16.804Z,20.58
2016-07-09T06:12:16.787Z,20.62
2016-07-09T06:13:16.772Z,20.58
2016-07-09T06:14:16.761Z,20.6
2016-07-09T06:15:16.738Z,20.56
2016-07-09T06:16:16.725Z,20.63
2016-07-09T06:17:16.711Z,20.65
2016-07-09T06:18:16.692Z,20.75
2016-07-09T06:19:16.673Z,20.78
2016-07-09T06:20:16.660Z,20.81
2016-07-09T06:21:16.645Z,20.81
2016-07-09T06:22:16.628Z,20.78
2016-07-09T06:23:16.610Z,20.74
2016-07-09T06:24:16.599Z,20.74
2016-07-09T06:25:16.581Z,20.85
2016-07-09T06:26:16.564Z,20.85
2016-07-09T06:27:16.550Z,20.92
2016-07-09T06:28:16.535Z,20.92
2016-07-09T06:29:16.515Z,20.95
2016-07-09T06:30:16.500Z,20.95
2016-07-09T06:31:16.489Z,20.87
2016-07-09T06:32:16.466Z,20.93
2016-07-09T06:33:16.454Z,20.96
2016-07-09T06:34:16.439Z,21.09
2016-07-09T06:35:16.424Z,21.14
2016-07-09T06:36:16.424Z,21.2
2016-07-09T06:37:16.394Z,21.25
2016-07-09T06:38:16.377Z,21.39
2016-07-09T06:39:16.366Z,21.54
2016-07-09T06:40:16.350Z,21.46
2016-07-09T06:41:16.337Z,21.54
2016-07-09T06:42:16.316Z,21.62
2016-07-09T06:43:16.310Z,21.69
2016-07-09T06:44:16.288Z,21.62
2016-07-09T06:45:16.276Z,21.64
2016-07-09T06:46:16.262Z,21.64
2016-07-09T06:47:16.254Z,21.69
2016-07-09T06:48:16.231Z,21.75
2016-07-09T06:49:16.216Z,21.67
2016-07-09T06:50:16.202Z,21.75
2016-07-09T06:51:16.189Z,21.85
2016-07-09T06:52:16.174Z,22
2016-07-09T06:53:16.159Z,22.06
2016-07-09T06:54:16.148Z,22.02
2016-07-09T06:55:16.132Z,22.11
2016-07-09T06:56:16.119Z,22.15
2016-07-09T06:57:16.109Z,22.18
2016-07-09T06:58:16.093Z,22.08
2016-07-09T06:59:16.080Z,22.07
2016-07-09T07:00:16.065Z,22.14
2016-07-09T07:01:16.060Z,22.17
2016-07-09T07:02:16.034Z,22.18
2016-07-09T07:03:16.024Z,22.18
2016-07-09T07:04:16.011Z,22.18
2016-07-09T07:05:15.995Z,22.23
2016-07-09T07:06:15.983Z,22.14
2016-07-09T07:07:15.967Z,22.11
2016-07-09T07:08:15.956Z,22.1
2016-07-09T07:09:15.942Z,22.06
2016-07-09T07:10:15.928Z,22.08
2016-07-09T07:11:15.921Z,22.11
2016-07-09T07:12:15.910Z,22.14
2016-07-09T07:13:15.885Z,22.15
2016-07-09T07:14:15.876Z,22.22
2016-07-09T07:15:15.863Z,22.15
2016-07-09T07:16:15.846Z,22.11
2016-07-09T07:17:15.837Z,22.18
2016-07-09T07:18:15.822Z,22.15
2016-07-09T07:19:15.805Z,22.2
2016-07-09T07:20:15.797Z,22.26
2016-07-09T07:21:15.780Z,22.23
2016-07-09T07:22:15.771Z,22.23
2016-07-09T07:23:15.752Z,22.23
2016-07-09T07:24:15.738Z,22.28
2016-07-09T07:25:15.728Z,22.28
2016-07-09T07:26:15.712Z,22.45
2016-07-09T07:27:15.705Z,22.33
2016-07-09T07:28:15.686Z,22.51
2016-07-09T07:29:15.670Z,22.43
2016-07-09T07:30:15.660Z,22.54
2016-07-09T07:31:15.645Z,22.55
2016-07-09T07:32:15.631Z,22.59
2016-07-09T07:33:15.622Z,22.59
2016-07-09T07:34:15.605Z,22.69
2016-07-09T07:35:15.593Z,22.69
2016-07-09T07:36:15.582Z,22.76
2016-07-09T07:37:15.567Z,22.83
2016-07-09T07:38:15.566Z,22.84
2016-07-09T07:39:15.542Z,22.96
2016-07-09T07:40:15.528Z,22.96
2016-07-09T07:41:15.518Z,23.02
2016-07-09T07:42:15.509Z,23.25
2016-07-09T07:43:15.492Z,23.17
2016-07-09T07:44:15.482Z,23.21
2016-07-09T07:45:15.465Z,23.32
2016-07-09T07:46:15.452Z,23.27
2016-07-09T07:47:15.441Z,23.34
2016-07-09T07:48:15.432Z,23.31
2016-07-09T07:49:15.419Z,23.36
2016-07-09T07:50:15.416Z,23.4
2016-07-09T07:51:15.396Z,23.43
2016-07-09T07:52:15.380Z,23.41
2016-07-09T07:53:15.371Z,23.39
2016-07-09T07:54:15.357Z,23.44
2016-07-09T07:55:15.344Z,23.46
2016-07-09T07:56:15.339Z,23.46
2016-07-09T07:57:15.323Z,23.55
2016-07-09T07:58:15.309Z,23.61
2016-07-09T07:59:15.301Z,23.55
2016-07-09T08:00:15.288Z,23.61
2016-07-09T08:01:15.274Z,23.62
2016-07-09T08:02:15.266Z,23.58
2016-07-09T08:03:15.254Z,23.68
2016-07-09T08:04:15.239Z,23.65
2016-07-09T08:05:15.225Z,23.78
2016-07-09T08:06:15.215Z,23.86
2016-07-09T08:07:15.204Z,23.95
2016-07-09T08:08:15.188Z,24.14
2016-07-09T08:09:15.181Z,24.24
2016-07-09T08:10:15.168Z,24.43
2016-07-09T08:11:15.161Z,24.74
2016-07-09T08:12:15.148Z,24.69
2016-07-09T08:13:15.134Z,24.84
2016-07-09T08:14:15.125Z,24.85
2016-07-09T08:15:15.123Z,24.95
2016-07-09T08:16:15.104Z,25.06
2016-07-09T08:17:15.108Z,25.08
2016-07-09T08:18:15.084Z,25.23
2016-07-09T08:19:15.070Z,25.38
2016-07-09T08:20:15.074Z,25.44
2016-07-09T08:21:15.059Z,25.59
2016-07-09T08:22:15.047Z,25.65
2016-07-09T08:23:15.037Z,25.8
2016-07-09T08:24:15.032Z,25.91
2016-07-09T08:25:15.019Z,25.93
2016-07-09T08:26:15.012Z,25.84
2016-07-09T08:27:15.006Z,25.84
2016-07-09T08:28:15.002Z,25.98
2016-07-09T08:29:14.991Z,26.13
2016-07-09T08:30:14.982Z,26.4
2016-07-09T08:31:14.977Z,26.6
2016-07-09T08:32:14.973Z,26.93
2016-07-09T08:33:14.962Z,27.05
2016-07-09T08:34:14.957Z,26.97
2016-07-09T08:35:14.952Z,26.9
2016-07-09T08:36:14.945Z,26.88
2016-07-09T08:37:14.940Z,26.84
2016-07-09T08:38:14.931Z,26.81
2016-07-09T08:39:14.925Z,26.88
2016-07-09T08:40:14.920Z,26.9
2016-07-09T08:41:14.915Z,26.92
2016-07-09T08:42:14.906Z,27.08
2016-07-09T08:43:14.901Z,27.11
2016-07-09T08:44:14.897Z,27.18
2016-07-09T08:45:14.891Z,27.35
2016-07-09T08:46:14.881Z,27.35
2016-07-09T08:47:14.876Z,27.44
2016-07-09T08:48:14.870Z,27.45
2016-07-09T08:49:14.866Z,27.54
2016-07-09T08:50:14.856Z,27.45
2016-07-09T08:51:14.854Z,27.44
2016-07-09T08:52:14.848Z,27.3
2016-07-09T08:53:14.842Z,27.32
2016-07-09T08:54:14.835Z,27.33
2016-07-09T08:55:14.829Z,27.22
2016-07-09T08:56:14.822Z,27.27
2016-07-09T08:57:14.819Z,27.12
2016-07-09T08:58:14.813Z,27.18
2016-07-09T08:59:14.803Z,27.3
2016-07-09T09:00:14.795Z,27.26
2016-07-09T09:01:14.796Z,27.45
2016-07-09T09:02:14.789Z,27.58
2016-07-09T09:03:14.778Z,27.51
2016-07-09T09:04:14.773Z,27.59
2016-07-09T09:05:14.766Z,27.44
2016-07-09T09:06:14.763Z,27.42
2016-07-09T09:07:14.757Z,27.29
2016-07-09T09:08:14.744Z,27.22
2016-07-09T09:09:14.734Z,27.42
2016-07-09T09:10:14.730Z,27.45
2016-07-09T09:11:14.724Z,27.45
2016-07-09T09:12:14.713Z,27.51
2016-07-09T09:13:14.712Z,27.52
2016-07-09T09:14:14.702Z,27.6
2016-07-09T09:15:14.695Z,27.74
2016-07-09T09:16:14.692Z,27.87
2016-07-09T09:17:14.684Z,27.8
2016-07-09T09:18:14.680Z,27.85
2016-07-09T09:19:14.679Z,27.67
2016-07-09T09:20:14.668Z,27.52
2016-07-09T09:21:14.673Z,27.52
2016-07-09T09:22:14.654Z,27.67
2016-07-09T09:23:14.656Z,27.83
2016-07-09T09:24:14.644Z,27.86
2016-07-09T09:25:14.638Z,27.68
2016-07-09T09:26:14.628Z,27.49
2016-07-09T09:27:14.624Z,27.35
2016-07-09T09:28:14.616Z,27.32
2016-07-09T09:29:14.614Z,27.29
2016-07-09T09:30:14.606Z,27.26
2016-07-09T09:31:14.606Z,27.33
2016-07-09T09:32:14.591Z,27.33
2016-07-09T09:33:14.586Z,27.32
2016-07-09T09:34:14.575Z,27.22
2016-07-09T09:35:14.570Z,27.21
2016-07-09T09:36:14.560Z,27.11
2016-07-09T09:37:14.555Z,27.1
2016-07-09T09:38:14.544Z,26.89
2016-07-09T09:39:14.535Z,26.75
2016-07-09T09:40:14.524Z,26.6
2016-07-09T09:41:14.513Z,26.48
2016-07-09T09:42:14.507Z,26.48
2016-07-09T09:43:14.498Z,26.55
2016-07-09T09:44:14.487Z,26.62
2016-07-09T09:45:14.485Z,26.71
2016-07-09T09:46:14.475Z,26.88
2016-07-09T09:47:14.470Z,27.15
2016-07-09T09:48:14.457Z,27.14
2016-07-09T09:49:14.449Z,27.08
2016-07-09T09:50:14.441Z,27.03
2016-07-09T09:51:14.433Z,27.11
2016-07-09T09:52:14.427Z,27.07
2016-07-09T09:53:14.420Z,27.07
2016-07-09T09:54:14.413Z,27.12
2016-07-09T09:55:14.420Z,27.26
2016-07-09T09:56:14.400Z,27.55
2016-07-09T09:57:14.392Z,27.68
2016-07-09T09:58:14.388Z,27.59
2016-07-09T09:59:14.382Z,27.47
2016-07-09T10:00:14.374Z,27.55
2016-07-09T10:01:14.370Z,27.7
2016-07-09T10:02:14.359Z,27.87
2016-07-09T10:03:14.352Z,27.87
2016-07-09T10:04:14.351Z,27.83
2016-07-09T10:05:14.339Z,27.8
2016-07-09T10:06:14.331Z,27.77
2016-07-09T10:07:14.330Z,28.1
2016-07-09T10:08:14.325Z,28.12
2016-07-09T10:09:14.318Z,28.23
2016-07-09T10:10:14.317Z,28.47
2016-07-09T10:11:14.309Z,28.62
2016-07-09T10:12:14.306Z,28.57
2016-07-09T10:13:14.297Z,28.7
2016-07-09T10:14:14.396Z,28.97
2016-07-09T10:15:14.290Z,29.1
2016-07-09T10:16:16.265Z,29.2
2016-07-09T10:17:14.281Z,29.35
2016-07-09T10:18:14.282Z,29.42
2016-07-09T10:19:14.276Z,29.39
2016-07-09T10:20:14.271Z,29.49
2016-07-09T10:21:14.271Z,29.63
2016-07-09T10:22:14.269Z,29.72
2016-07-09T10:23:14.262Z,29.66
2016-07-09T10:24:14.260Z,29.35
2016-07-09T10:25:14.257Z,29.19
2016-07-09T10:26:14.251Z,29.02
2016-07-09T10:27:14.252Z,29.08
2016-07-09T10:28:14.247Z,29.02
2016-07-09T10:29:14.238Z,29.02
2016-07-09T10:30:14.235Z,29.02
2016-07-09T10:31:14.228Z,29.2
2016-07-09T10:32:14.223Z,29.2
2016-07-09T10:33:14.221Z,29.35
2016-07-09T10:34:14.211Z,29.24
2016-07-09T10:35:14.206Z,29.17
2016-07-09T10:36:14.202Z,28.98
2016-07-09T10:37:14.201Z,28.98
2016-07-09T10:38:14.192Z,28.98
2016-07-09T10:39:14.186Z,28.93
2016-07-09T10:40:14.207Z,28.97
2016-07-09T10:41:14.179Z,29.2
2016-07-09T10:42:14.173Z,29.16
2016-07-09T10:43:14.167Z,29.16
2016-07-09T10:44:14.163Z,28.98
2016-07-09T10:45:14.153Z,28.91
2016-07-09T10:46:14.151Z,28.79
2016-07-09T10:47:14.146Z,28.89
2016-07-09T10:48:14.143Z,29.05
2016-07-09T10:49:14.136Z,29.16
2016-07-09T10:50:14.131Z,29.34
2016-07-09T10:51:14.131Z,29.41
2016-07-09T10:52:14.128Z,29.41
2016-07-09T10:53:14.123Z,29.35
2016-07-09T10:54:14.117Z,29.32
2016-07-09T10:55:14.111Z,29.14
2016-07-09T10:56:14.107Z,29.16
2016-07-09T10:57:14.104Z,29.1
2016-07-09T10:58:14.097Z,29.07
2016-07-09T10:59:14.091Z,28.85
2016-07-09T11:00:14.093Z,28.7
2016-07-09T11:01:14.083Z,28.59
2016-07-09T11:02:14.076Z,28.45
2016-07-09T11:03:14.070Z,28.38
2016-07-09T11:04:14.074Z,28.32
2016-07-09T11:05:14.056Z,28.37
2016-07-09T11:06:14.052Z,28.22
2016-07-09T11:07:14.044Z,28.17
2016-07-09T11:08:14.040Z,28.07
2016-07-09T11:09:14.030Z,28.01
2016-07-09T11:10:14.030Z,27.9
2016-07-09T11:11:14.016Z,27.85
2016-07-09T11:12:14.008Z,27.68
2016-07-09T11:13:13.997Z,27.63
2016-07-09T11:14:13.987Z,27.51
2016-07-09T11:15:13.983Z,27.59
2016-07-09T11:16:13.972Z,27.63
2016-07-09T11:17:13.966Z,27.58
2016-07-09T11:18:13.958Z,27.39
2016-07-09T11:19:14.546Z,27.52
2016-07-09T11:20:13.942Z,27.59
2016-07-09T11:21:13.931Z,27.74
2016-07-09T11:22:13.926Z,27.71
2016-07-09T11:23:13.918Z,27.68
2016-07-09T11:24:13.908Z,27.89
2016-07-09T11:25:13.912Z,28.07
2016-07-09T11:26:13.899Z,28.47
2016-07-09T11:27:13.890Z,28.54
2016-07-09T11:28:13.886Z,28.6
2016-07-09T11:29:13.882Z,28.57
2016-07-09T11:30:13.873Z,28.56
2016-07-09T11:31:13.870Z,28.66
2016-07-09T11:32:13.861Z,28.75
2016-07-09T11:33:13.859Z,28.88
2016-07-09T11:34:13.854Z,29.17
2016-07-09T11:35:13.850Z,29.2
2016-07-09T11:36:13.845Z,29.32
2016-07-09T11:37:13.856Z,29.49
2016-07-09T11:38:13.839Z,29.54
2016-07-09T11:39:13.834Z,29.63
2016-07-09T11:40:13.837Z,29.87
2016-07-09T11:41:14.432Z,29.95
2016-07-09T11:42:13.828Z,30.19
2016-07-09T11:43:13.828Z,30.1
2016-07-09T11:44:13.826Z,29.9
2016-07-09T11:45:13.826Z,29.87
2016-07-09T11:46:13.820Z,29.71
2016-07-09T11:47:13.820Z,29.66
2016-07-09T11:48:13.813Z,29.45
2016-07-09T11:49:13.813Z,29.27
2016-07-09T11:50:13.808Z,29.22
2016-07-09T11:51:13.798Z,29.24
2016-07-09T11:52:13.797Z,29.14
2016-07-09T11:53:13.794Z,29.17
2016-07-09T11:54:14.383Z,28.98
2016-07-09T11:55:13.780Z,29.01
2016-07-09T11:56:13.775Z,29.05
2016-07-09T11:57:13.769Z,29.01
2016-07-09T11:58:13.762Z,28.98
2016-07-09T11:59:13.759Z,28.72
2016-07-09T12:00:13.750Z,28.62
2016-07-09T12:01:13.744Z,28.54
2016-07-09T12:02:13.739Z,28.48
2016-07-09T12:03:13.732Z,28.42
2016-07-09T12:04:13.724Z,28.44
2016-07-09T12:05:13.718Z,28.12
2016-07-09T12:06:13.709Z,27.95
2016-07-09T12:07:13.705Z,27.83
2016-07-09T12:08:13.696Z,27.75
2016-07-09T12:09:13.685Z,27.82
2016-07-09T12:10:13.686Z,27.82
2016-07-09T12:11:13.668Z,27.82
2016-07-09T12:12:13.663Z,27.75
2016-07-09T12:13:13.657Z,27.68
2016-07-09T12:14:13.644Z,27.58
2016-07-09T12:15:13.640Z,27.45
2016-07-09T12:16:13.635Z,27.42
2016-07-09T12:17:13.619Z,27.27
2016-07-09T12:18:13.607Z,27.26
2016-07-09T12:19:13.602Z,27.26
2016-07-09T12:20:13.593Z,27.29
2016-07-09T12:21:13.582Z,27.15
2016-07-09T12:22:13.578Z,27.44
2016-07-09T12:23:13.567Z,27.64
2016-07-09T12:24:13.554Z,27.87
2016-07-09T12:25:13.550Z,27.82
2016-07-09T12:26:13.542Z,27.75
2016-07-09T12:27:13.540Z,27.64
2016-07-09T12:28:13.523Z,27.74
2016-07-09T12:29:13.514Z,27.85
2016-07-09T12:30:13.515Z,27.86
2016-07-09T12:31:13.809Z,27.87
2016-07-09T12:32:13.492Z,27.89
2016-07-09T12:33:13.491Z,27.87
2016-07-09T12:34:13.480Z,27.89
2016-07-09T12:35:13.468Z,27.9
2016-07-09T12:36:13.466Z,27.92
2016-07-09T12:37:13.450Z,27.83
2016-07-09T12:38:13.441Z,27.74
2016-07-09T12:39:13.438Z,27.64
2016-07-09T12:40:13.427Z,27.54
2016-07-09T12:41:13.415Z,27.42
2016-07-09T12:42:13.410Z,27.3
2016-07-09T12:43:13.396Z,27.22
2016-07-09T12:44:13.387Z,27.12
2016-07-09T12:45:13.380Z,27.07
2016-07-09T12:46:13.366Z,27.12
2016-07-09T12:47:13.357Z,27.02
2016-07-09T12:48:13.357Z,26.89
2016-07-09T12:49:13.335Z,26.71
2016-07-09T12:50:13.331Z,26.71
2016-07-09T12:51:13.317Z,26.88
2016-07-09T12:52:13.319Z,26.85
2016-07-09T12:53:13.900Z,26.93
2016-07-09T12:54:13.289Z,26.97
2016-07-09T12:55:13.281Z,26.89